sensor_id;sensor_type;location;lat;lon;timestamp;temperature;humidity
7248;DHT22;3665;51.034;13.642;2023-04-29T00:15:27;9.10;99.90
7248;DHT22;3665;51.034;13.642;2023-04-29T00:20:36;9.20;99.90
7248;DHT22;3665;51.034;13.642;2023-04-29T00:47:11;9.20;99.90
7248;DHT22;3665;51.034;13.642;2023-04-29T00:51:56;9.10;99.90
7248;DHT22;3665;51.034;13.642;2023-04-29T00:57:06;9.20;99.90
7248;DHT22;3665;51.034;13.642;2023-04-29T01:01:54;9.30;99.90
7248;DHT22;3665;51.034;13.642;2023-04-29T01:07:10;9.50;99.90
7248;DHT22;3665;51.034;13.642;2023-04-29T01:12:05;9.60;99.90
7248;DHT22;3665;51.034;13.642;2023-04-29T01:17:05;9.70;99.90
7248;DHT22;3665;51.034;13.642;2023-04-29T01:21:51;9.80;99.90
7248;DHT22;3665;51.034;13.642;2023-04-29T01:26:41;9.90;99.90
7248;DHT22;3665;51.034;13.642;2023-04-29T01:32:00;10.10;99.90
7248;DHT22;3665;51.034;13.642;2023-04-29T01:36:55;10.20;99.90
7248;DHT22;3665;51.034;13.642;2023-04-29T01:41:56;10.30;99.90
7248;DHT22;3665;51.034;13.642;2023-04-29T01:46:54;10.40;99.90
7248;DHT22;3665;51.034;13.642;2023-04-29T01:51:56;10.40;99.90
7248;DHT22;3665;51.034;13.642;2023-04-29T01:56:45;10.40;99.90
7248;DHT22;3665;51.034;13.642;2023-04-29T02:07:44;10.50;99.90
7248;DHT22;3665;51.034;13.642;2023-04-29T02:12:30;10.60;99.90
7248;DHT22;3665;51.034;13.642;2023-04-29T02:17:33;10.70;99.90
7248;DHT22;3665;51.034;13.642;2023-04-29T02:22:21;10.70;99.90
7248;DHT22;3665;51.034;13.642;2023-04-29T02:27:40;10.70;99.90
7248;DHT22;3665;51.034;13.642;2023-04-29T02:32:34;10.60;99.90
7248;DHT22;3665;51.034;13.642;2023-04-29T02:37:18;10.60;99.90
7248;DHT22;3665;51.034;13.642;2023-04-29T02:42:08;10.50;99.90
7248;DHT22;3665;51.034;13.642;2023-04-29T02:46:53;10.50;99.90
7248;DHT22;3665;51.034;13.642;2023-04-29T02:51:45;10.40;99.90
7248;DHT22;3665;51.034;13.642;2023-04-29T02:56:30;10.50;99.90
7248;DHT22;3665;51.034;13.642;2023-04-29T03:01:17;10.50;99.90
7248;DHT22;3665;51.034;13.642;2023-04-29T03:06:11;10.40;99.90
7248;DHT22;3665;51.034;13.642;2023-04-29T03:10:55;10.40;99.90
7248;DHT22;3665;51.034;13.642;2023-04-29T03:15:41;10.40;99.90
7248;DHT22;3665;51.034;13.642;2023-04-29T03:20:31;10.40;99.90
7248;DHT22;3665;51.034;13.642;2023-04-29T03:25:19;10.30;99.90
7248;DHT22;3665;51.034;13.642;2023-04-29T03:30:07;10.30;99.90
7248;DHT22;3665;51.034;13.642;2023-04-29T03:35:02;10.30;99.90
7248;DHT22;3665;51.034;13.642;2023-04-29T03:40:50;10.30;99.90
7248;DHT22;3665;51.034;13.642;2023-04-29T03:45:34;10.30;99.90
7248;DHT22;3665;51.034;13.642;2023-04-29T03:50:23;10.20;99.90
7248;DHT22;3665;51.034;13.642;2023-04-29T03:55:11;10.20;99.90
7248;DHT22;3665;51.034;13.642;2023-04-29T04:00:03;10.20;99.90
7248;DHT22;3665;51.034;13.642;2023-04-29T04:05:01;10.20;99.90
7248;DHT22;3665;51.034;13.642;2023-04-29T04:10:11;10.20;99.90
7248;DHT22;3665;51.034;13.642;2023-04-29T04:15:47;10.30;99.90
7248;DHT22;3665;51.034;13.642;2023-04-29T04:32:46;10.40;99.90
7248;DHT22;3665;51.034;13.642;2023-04-29T04:37:52;10.50;99.90
7248;DHT22;3665;51.034;13.642;2023-04-29T04:43:15;10.60;99.90
7248;DHT22;3665;51.034;13.642;2023-04-29T05:24:49;11.30;99.90
7248;DHT22;3665;51.034;13.642;2023-04-29T06:34:24;13.30;99.90
7248;DHT22;3665;51.034;13.642;2023-04-29T06:40:17;13.30;99.90
7248;DHT22;3665;51.034;13.642;2023-04-29T06:46:10;13.40;99.90
7248;DHT22;3665;51.034;13.642;2023-04-29T06:51:59;13.20;99.90
7248;DHT22;3665;51.034;13.642;2023-04-29T06:56:54;12.90;99.90
7248;DHT22;3665;51.034;13.642;2023-04-29T07:01:52;12.70;99.90
7248;DHT22;3665;51.034;13.642;2023-04-29T07:06:44;12.80;99.90
7248;DHT22;3665;51.034;13.642;2023-04-29T07:12:02;12.50;99.90
7248;DHT22;3665;51.034;13.642;2023-04-29T07:16:46;12.30;99.90
7248;DHT22;3665;51.034;13.642;2023-04-29T07:21:33;12.10;99.90
7248;DHT22;3665;51.034;13.642;2023-04-29T07:26:23;12.30;99.90
7248;DHT22;3665;51.034;13.642;2023-04-29T07:31:13;12.50;99.90
7248;DHT22;3665;51.034;13.642;2023-04-29T07:35:56;12.60;99.90
7248;DHT22;3665;51.034;13.642;2023-04-29T07:40:47;12.60;99.90
7248;DHT22;3665;51.034;13.642;2023-04-29T07:45:32;12.80;99.90
7248;DHT22;3665;51.034;13.642;2023-04-29T07:50:58;13.10;99.90
7248;DHT22;3665;51.034;13.642;2023-04-29T07:55:41;13.30;99.90
7248;DHT22;3665;51.034;13.642;2023-04-29T08:00:34;13.50;99.90
7248;DHT22;3665;51.034;13.642;2023-04-29T08:05:26;13.20;99.90
7248;DHT22;3665;51.034;13.642;2023-04-29T08:10:25;12.80;99.90
7248;DHT22;3665;51.034;13.642;2023-04-29T08:15:10;13.10;99.90
7248;DHT22;3665;51.034;13.642;2023-04-29T08:19:57;13.30;99.90
7248;DHT22;3665;51.034;13.642;2023-04-29T08:24:47;13.00;99.90
7248;DHT22;3665;51.034;13.642;2023-04-29T08:29:34;12.80;99.90
7248;DHT22;3665;51.034;13.642;2023-04-29T08:34:22;12.40;99.90
7248;DHT22;3665;51.034;13.642;2023-04-29T08:39:12;12.40;99.90
7248;DHT22;3665;51.034;13.642;2023-04-29T08:43:58;12.50;99.90
7248;DHT22;3665;51.034;13.642;2023-04-29T08:48:47;12.50;99.90
7248;DHT22;3665;51.034;13.642;2023-04-29T08:53:33;12.30;99.90
7248;DHT22;3665;51.034;13.642;2023-04-29T08:58:24;12.40;99.90
7248;DHT22;3665;51.034;13.642;2023-04-29T09:03:17;12.40;99.90
7248;DHT22;3665;51.034;13.642;2023-04-29T09:08:31;12.40;99.90
7248;DHT22;3665;51.034;13.642;2023-04-29T09:13:25;12.20;99.90
7248;DHT22;3665;51.034;13.642;2023-04-29T09:18:40;12.10;99.90
7248;DHT22;3665;51.034;13.642;2023-04-29T09:23:43;12.00;99.90
7248;DHT22;3665;51.034;13.642;2023-04-29T09:28:36;12.00;99.90
7248;DHT22;3665;51.034;13.642;2023-04-29T09:33:51;12.00;99.90
7248;DHT22;3665;51.034;13.642;2023-04-29T09:39:02;12.10;99.90
7248;DHT22;3665;51.034;13.642;2023-04-29T09:44:06;11.90;99.90
7248;DHT22;3665;51.034;13.642;2023-04-29T09:49:23;11.90;99.90
7248;DHT22;3665;51.034;13.642;2023-04-29T09:54:21;12.00;99.90
7248;DHT22;3665;51.034;13.642;2023-04-29T09:59:14;12.40;99.90
7248;DHT22;3665;51.034;13.642;2023-04-29T10:04:31;12.80;99.90
7248;DHT22;3665;51.034;13.642;2023-04-29T10:09:32;13.40;99.90
7248;DHT22;3665;51.034;13.642;2023-04-29T10:14:26;13.90;99.90
7248;DHT22;3665;51.034;13.642;2023-04-29T10:19:32;13.90;99.90
7248;DHT22;3665;51.034;13.642;2023-04-29T10:24:35;13.70;99.90
7248;DHT22;3665;51.034;13.642;2023-04-29T10:29:21;13.80;99.90
7248;DHT22;3665;51.034;13.642;2023-04-29T10:34:05;13.80;99.90
7248;DHT22;3665;51.034;13.642;2023-04-29T10:38:58;13.60;99.90
7248;DHT22;3665;51.034;13.642;2023-04-29T10:43:42;13.50;99.90
7248;DHT22;3665;51.034;13.642;2023-04-29T10:48:29;13.90;94.90
7248;DHT22;3665;51.034;13.642;2023-04-29T10:53:18;13.90;55.00
7248;DHT22;3665;51.034;13.642;2023-04-29T10:58:37;14.00;74.30
7248;DHT22;3665;51.034;13.642;2023-04-29T11:03:44;13.90;49.80
7248;DHT22;3665;51.034;13.642;2023-04-29T11:08:29;13.80;61.40
7248;DHT22;3665;51.034;13.642;2023-04-29T11:13:26;14.20;5.30
7248;DHT22;3665;51.034;13.642;2023-04-29T11:18:27;14.30;10.30
7248;DHT22;3665;51.034;13.642;2023-04-29T11:23:11;14.20;1.00
7248;DHT22;3665;51.034;13.642;2023-04-29T11:27:58;14.30;1.00
7248;DHT22;3665;51.034;13.642;2023-04-29T11:32:48;14.70;1.00
7248;DHT22;3665;51.034;13.642;2023-04-29T11:37:33;14.70;1.00
7248;DHT22;3665;51.034;13.642;2023-04-29T11:42:21;14.80;1.00
7248;DHT22;3665;51.034;13.642;2023-04-29T11:47:09;15.10;1.00
7248;DHT22;3665;51.034;13.642;2023-04-29T11:51:57;14.90;1.00
7248;DHT22;3665;51.034;13.642;2023-04-29T11:56:45;14.70;1.00
7248;DHT22;3665;51.034;13.642;2023-04-29T12:01:33;14.70;1.00
7248;DHT22;3665;51.034;13.642;2023-04-29T12:06:26;14.60;1.00
7248;DHT22;3665;51.034;13.642;2023-04-29T12:11:12;14.60;1.00
7248;DHT22;3665;51.034;13.642;2023-04-29T12:16:08;14.10;1.00
7248;DHT22;3665;51.034;13.642;2023-04-29T12:20:55;13.20;1.00
7248;DHT22;3665;51.034;13.642;2023-04-29T12:25:55;13.30;1.00
7248;DHT22;3665;51.034;13.642;2023-04-29T12:30:56;14.10;1.00
7248;DHT22;3665;51.034;13.642;2023-04-29T12:35:56;14.20;1.00
7248;DHT22;3665;51.034;13.642;2023-04-29T12:40:51;13.70;1.00
7248;DHT22;3665;51.034;13.642;2023-04-29T12:45:35;13.20;1.00
7248;DHT22;3665;51.034;13.642;2023-04-29T12:50:28;12.70;1.00
7248;DHT22;3665;51.034;13.642;2023-04-29T12:55:31;12.40;1.00
7248;DHT22;3665;51.034;13.642;2023-04-29T13:00:34;12.20;41.60
7248;DHT22;3665;51.034;13.642;2023-04-29T13:05:20;12.30;33.60
7248;DHT22;3665;51.034;13.642;2023-04-29T13:10:06;12.20;54.60
7248;DHT22;3665;51.034;13.642;2023-04-29T13:14:53;12.00;31.50
7248;DHT22;3665;51.034;13.642;2023-04-29T13:19:42;11.60;73.30
7248;DHT22;3665;51.034;13.642;2023-04-29T13:25:10;11.30;99.90
7248;DHT22;3665;51.034;13.642;2023-04-29T13:30:07;11.50;99.90
7248;DHT22;3665;51.034;13.642;2023-04-29T13:34:53;11.40;99.40
7248;DHT22;3665;51.034;13.642;2023-04-29T13:39:43;11.20;99.90
7248;DHT22;3665;51.034;13.642;2023-04-29T13:44:30;10.80;99.90
7248;DHT22;3665;51.034;13.642;2023-04-29T13:49:33;10.80;99.90
7248;DHT22;3665;51.034;13.642;2023-04-29T13:54:39;10.70;99.90
7248;DHT22;3665;51.034;13.642;2023-04-29T13:59:28;10.80;99.90
7248;DHT22;3665;51.034;13.642;2023-04-29T14:04:31;10.70;99.90
7248;DHT22;3665;51.034;13.642;2023-04-29T14:09:21;10.70;99.90
7248;DHT22;3665;51.034;13.642;2023-04-29T14:14:07;10.60;99.90
7248;DHT22;3665;51.034;13.642;2023-04-29T14:19:11;10.50;99.90
7248;DHT22;3665;51.034;13.642;2023-04-29T14:23:58;10.30;99.90
7248;DHT22;3665;51.034;13.642;2023-04-29T14:28:46;10.60;99.90
7248;DHT22;3665;51.034;13.642;2023-04-29T14:33:34;10.70;99.90
7248;DHT22;3665;51.034;13.642;2023-04-29T14:38:23;10.80;99.90
7248;DHT22;3665;51.034;13.642;2023-04-29T14:43:10;11.00;62.80
7248;DHT22;3665;51.034;13.642;2023-04-29T14:47:57;11.40;21.70
7248;DHT22;3665;51.034;13.642;2023-04-29T14:52:48;11.70;1.00
7248;DHT22;3665;51.034;13.642;2023-04-29T14:57:35;11.70;1.00
7248;DHT22;3665;51.034;13.642;2023-04-29T15:02:39;11.70;1.00
7248;DHT22;3665;51.034;13.642;2023-04-29T15:07:25;11.50;1.00
7248;DHT22;3665;51.034;13.642;2023-04-29T15:12:13;11.60;1.00
7248;DHT22;3665;51.034;13.642;2023-04-29T15:17:01;11.50;3.90
7248;DHT22;3665;51.034;13.642;2023-04-29T15:21:52;11.50;1.00
7248;DHT22;3665;51.034;13.642;2023-04-29T15:26:41;11.30;25.00
7248;DHT22;3665;51.034;13.642;2023-04-29T15:31:25;11.30;21.30
7248;DHT22;3665;51.034;13.642;2023-04-29T15:36:12;11.50;5.90
7248;DHT22;3665;51.034;13.642;2023-04-29T15:41:02;11.70;1.00
7248;DHT22;3665;51.034;13.642;2023-04-29T15:45:49;11.60;1.00
7248;DHT22;3665;51.034;13.642;2023-04-29T15:50:39;11.50;1.00
7248;DHT22;3665;51.034;13.642;2023-04-29T15:55:26;11.60;1.00
7248;DHT22;3665;51.034;13.642;2023-04-29T16:00:33;11.70;1.00
7248;DHT22;3665;51.034;13.642;2023-04-29T16:05:17;11.70;1.00
7248;DHT22;3665;51.034;13.642;2023-04-29T16:10:06;11.70;1.00
7248;DHT22;3665;51.034;13.642;2023-04-29T16:14:53;11.60;1.00
7248;DHT22;3665;51.034;13.642;2023-04-29T16:20:02;11.50;1.00
7248;DHT22;3665;51.034;13.642;2023-04-29T16:24:46;11.50;1.00
7248;DHT22;3665;51.034;13.642;2023-04-29T16:29:34;11.50;1.00
7248;DHT22;3665;51.034;13.642;2023-04-29T16:34:21;11.50;1.00
7248;DHT22;3665;51.034;13.642;2023-04-29T16:39:24;11.50;1.00
7248;DHT22;3665;51.034;13.642;2023-04-29T16:44:14;11.50;1.00
7248;DHT22;3665;51.034;13.642;2023-04-29T16:49:07;11.50;1.00
7248;DHT22;3665;51.034;13.642;2023-04-29T16:54:10;11.50;1.00
7248;DHT22;3665;51.034;13.642;2023-04-29T16:58:55;11.60;1.00
7248;DHT22;3665;51.034;13.642;2023-04-29T17:03:41;11.40;14.20
7248;DHT22;3665;51.034;13.642;2023-04-29T17:08:49;11.40;7.90
7248;DHT22;3665;51.034;13.642;2023-04-29T17:13:33;11.50;10.70
7248;DHT22;3665;51.034;13.642;2023-04-29T17:18:22;11.40;21.80
7248;DHT22;3665;51.034;13.642;2023-04-29T17:23:09;11.30;29.30
7248;DHT22;3665;51.034;13.642;2023-04-29T17:28:02;11.30;21.50
7248;DHT22;3665;51.034;13.642;2023-04-29T17:32:47;11.10;52.20
7248;DHT22;3665;51.034;13.642;2023-04-29T17:37:36;11.10;49.90
7248;DHT22;3665;51.034;13.642;2023-04-29T17:42:22;11.20;47.70
7248;DHT22;3665;51.034;13.642;2023-04-29T17:47:11;11.00;64.90
7248;DHT22;3665;51.034;13.642;2023-04-29T17:52:14;10.90;92.20
7248;DHT22;3665;51.034;13.642;2023-04-29T17:57:04;10.70;99.90
7248;DHT22;3665;51.034;13.642;2023-04-29T18:01:50;10.80;99.90
7248;DHT22;3665;51.034;13.642;2023-04-29T18:06:38;10.70;99.90
7248;DHT22;3665;51.034;13.642;2023-04-29T18:11:28;10.60;99.90
7248;DHT22;3665;51.034;13.642;2023-04-29T18:21:37;10.50;99.90
7248;DHT22;3665;51.034;13.642;2023-04-29T18:26:22;10.50;99.90
7248;DHT22;3665;51.034;13.642;2023-04-29T18:31:09;10.50;99.90
7248;DHT22;3665;51.034;13.642;2023-04-29T18:36:00;10.30;99.90
7248;DHT22;3665;51.034;13.642;2023-04-29T18:41:03;10.40;99.90
7248;DHT22;3665;51.034;13.642;2023-04-29T18:45:50;10.40;99.90
7248;DHT22;3665;51.034;13.642;2023-04-29T18:50:37;10.30;99.90
7248;DHT22;3665;51.034;13.642;2023-04-29T18:55:25;10.30;99.90
7248;DHT22;3665;51.034;13.642;2023-04-29T19:05:59;10.30;99.90
7248;DHT22;3665;51.034;13.642;2023-04-29T19:10:51;10.20;99.90
7248;DHT22;3665;51.034;13.642;2023-04-29T19:15:45;10.30;99.90
7248;DHT22;3665;51.034;13.642;2023-04-29T19:20:31;10.30;99.90
7248;DHT22;3665;51.034;13.642;2023-04-29T19:25:19;10.20;99.90
7248;DHT22;3665;51.034;13.642;2023-04-29T19:30:06;10.20;99.90
7248;DHT22;3665;51.034;13.642;2023-04-29T19:35:11;10.20;99.90
7248;DHT22;3665;51.034;13.642;2023-04-29T19:39:57;10.10;99.90
7248;DHT22;3665;51.034;13.642;2023-04-29T19:44:49;10.00;99.90
7248;DHT22;3665;51.034;13.642;2023-04-29T19:49:33;10.00;99.90
7248;DHT22;3665;51.034;13.642;2023-04-29T19:54:23;10.00;99.90
7248;DHT22;3665;51.034;13.642;2023-04-29T19:59:09;10.00;99.90
7248;DHT22;3665;51.034;13.642;2023-04-29T20:04:14;10.00;99.90
7248;DHT22;3665;51.034;13.642;2023-04-29T20:09:03;10.10;99.90
7248;DHT22;3665;51.034;13.642;2023-04-29T20:14:08;10.00;99.90
7248;DHT22;3665;51.034;13.642;2023-04-29T20:18:53;9.90;99.90
7248;DHT22;3665;51.034;13.642;2023-04-29T20:23:45;9.90;99.90
7248;DHT22;3665;51.034;13.642;2023-04-29T20:28:30;10.00;99.90
7248;DHT22;3665;51.034;13.642;2023-04-29T20:33:17;10.00;99.90
7248;DHT22;3665;51.034;13.642;2023-04-29T20:38:07;10.10;99.90
7248;DHT22;3665;51.034;13.642;2023-04-29T20:43:17;10.10;99.90
7248;DHT22;3665;51.034;13.642;2023-04-29T20:48:13;10.10;99.90
7248;DHT22;3665;51.034;13.642;2023-04-29T20:53:02;10.00;99.90
7248;DHT22;3665;51.034;13.642;2023-04-29T20:57:51;10.00;99.90
7248;DHT22;3665;51.034;13.642;2023-04-29T21:02:38;9.90;99.90
7248;DHT22;3665;51.034;13.642;2023-04-29T21:07:25;9.90;99.90
7248;DHT22;3665;51.034;13.642;2023-04-29T21:12:13;10.00;99.90
7248;DHT22;3665;51.034;13.642;2023-04-29T21:17:03;10.00;99.90
7248;DHT22;3665;51.034;13.642;2023-04-29T21:22:07;9.90;99.90
7248;DHT22;3665;51.034;13.642;2023-04-29T21:26:54;9.90;99.90
7248;DHT22;3665;51.034;13.642;2023-04-29T21:31:46;9.90;99.90
7248;DHT22;3665;51.034;13.642;2023-04-29T21:36:30;9.80;99.90
7248;DHT22;3665;51.034;13.642;2023-04-29T21:41:23;9.80;99.90
7248;DHT22;3665;51.034;13.642;2023-04-29T21:46:14;9.80;99.90
7248;DHT22;3665;51.034;13.642;2023-04-29T21:51:03;9.70;99.90
7248;DHT22;3665;51.034;13.642;2023-04-29T21:56:00;9.60;99.90
7248;DHT22;3665;51.034;13.642;2023-04-29T22:00:47;9.50;99.90
7248;DHT22;3665;51.034;13.642;2023-04-29T22:05:50;9.40;99.90
7248;DHT22;3665;51.034;13.642;2023-04-29T22:10:37;9.40;99.90
7248;DHT22;3665;51.034;13.642;2023-04-29T22:15:25;9.40;99.90
7248;DHT22;3665;51.034;13.642;2023-04-29T22:20:39;9.40;99.90
7248;DHT22;3665;51.034;13.642;2023-04-29T22:25:50;9.40;99.90
7248;DHT22;3665;51.034;13.642;2023-04-29T22:30:37;9.50;99.90
7248;DHT22;3665;51.034;13.642;2023-04-29T22:35:27;9.50;99.90
7248;DHT22;3665;51.034;13.642;2023-04-29T22:40:16;9.40;99.90
7248;DHT22;3665;51.034;13.642;2023-04-29T22:45:01;9.40;99.90
7248;DHT22;3665;51.034;13.642;2023-04-29T22:49:50;9.40;99.90
7248;DHT22;3665;51.034;13.642;2023-04-29T22:54:38;9.30;99.90
7248;DHT22;3665;51.034;13.642;2023-04-29T22:59:46;9.30;99.90
7248;DHT22;3665;51.034;13.642;2023-04-29T23:04:48;9.30;99.90
7248;DHT22;3665;51.034;13.642;2023-04-29T23:09:35;9.20;99.90
7248;DHT22;3665;51.034;13.642;2023-04-29T23:14:21;9.30;99.90
7248;DHT22;3665;51.034;13.642;2023-04-29T23:19:13;9.30;99.90
7248;DHT22;3665;51.034;13.642;2023-04-29T23:23:57;9.40;99.90
7248;DHT22;3665;51.034;13.642;2023-04-29T23:28:46;9.30;99.90
7248;DHT22;3665;51.034;13.642;2023-04-29T23:33:36;9.30;99.90
7248;DHT22;3665;51.034;13.642;2023-04-29T23:38:39;9.30;99.90
7248;DHT22;3665;51.034;13.642;2023-04-29T23:43:27;9.40;99.90
7248;DHT22;3665;51.034;13.642;2023-04-29T23:48:13;9.40;99.90
7248;DHT22;3665;51.034;13.642;2023-04-29T23:53:02;9.20;99.90
7248;DHT22;3665;51.034;13.642;2023-04-29T23:57:49;9.30;99.90
